sensor_id;sensor_type;location;lat;lon;timestamp;temperature;humidity
20574;DHT22;10445;50.216;7.912;2024-01-30T00:02:27;6.60;55.30
20574;DHT22;10445;50.216;7.912;2024-01-30T00:04:57;6.60;54.60
20574;DHT22;10445;50.216;7.912;2024-01-30T00:07:25;6.60;54.90
20574;DHT22;10445;50.216;7.912;2024-01-30T00:09:54;6.50;54.80
20574;DHT22;10445;50.216;7.912;2024-01-30T00:12:22;6.60;54.90
20574;DHT22;10445;50.216;7.912;2024-01-30T00:14:51;6.50;55.80
20574;DHT22;10445;50.216;7.912;2024-01-30T00:17:21;6.50;55.90
20574;DHT22;10445;50.216;7.912;2024-01-30T00:19:49;6.40;55.40
20574;DHT22;10445;50.216;7.912;2024-01-30T00:22:19;6.40;56.40
20574;DHT22;10445;50.216;7.912;2024-01-30T00:24:48;6.30;57.00
20574;DHT22;10445;50.216;7.912;2024-01-30T00:27:16;6.30;58.50
20574;DHT22;10445;50.216;7.912;2024-01-30T00:29:45;6.20;57.70
20574;DHT22;10445;50.216;7.912;2024-01-30T00:32:13;6.30;59.90
20574;DHT22;10445;50.216;7.912;2024-01-30T00:34:42;6.30;59.00
20574;DHT22;10445;50.216;7.912;2024-01-30T00:37:10;6.30;60.10
20574;DHT22;10445;50.216;7.912;2024-01-30T00:39:40;6.30;59.60
20574;DHT22;10445;50.216;7.912;2024-01-30T00:42:09;6.30;59.60
20574;DHT22;10445;50.216;7.912;2024-01-30T00:44:37;6.20;59.20
20574;DHT22;10445;50.216;7.912;2024-01-30T00:47:06;6.10;59.70
20574;DHT22;10445;50.216;7.912;2024-01-30T00:49:34;6.10;60.60
20574;DHT22;10445;50.216;7.912;2024-01-30T00:52:03;6.10;63.60
20574;DHT22;10445;50.216;7.912;2024-01-30T00:54:32;6.10;61.70
20574;DHT22;10445;50.216;7.912;2024-01-30T00:57:02;6.00;62.10
20574;DHT22;10445;50.216;7.912;2024-01-30T00:59:30;5.90;63.50
20574;DHT22;10445;50.216;7.912;2024-01-30T01:01:59;5.80;65.10
20574;DHT22;10445;50.216;7.912;2024-01-30T01:04:27;5.80;65.70
20574;DHT22;10445;50.216;7.912;2024-01-30T01:06:56;5.80;66.50
20574;DHT22;10445;50.216;7.912;2024-01-30T01:09:25;5.80;66.10
20574;DHT22;10445;50.216;7.912;2024-01-30T01:11:53;5.80;66.80
20574;DHT22;10445;50.216;7.912;2024-01-30T01:14:23;5.80;67.50
20574;DHT22;10445;50.216;7.912;2024-01-30T01:16:52;5.90;67.90
20574;DHT22;10445;50.216;7.912;2024-01-30T01:19:21;6.00;67.10
20574;DHT22;10445;50.216;7.912;2024-01-30T01:21:49;6.10;65.70
20574;DHT22;10445;50.216;7.912;2024-01-30T01:24:19;6.20;63.60
20574;DHT22;10445;50.216;7.912;2024-01-30T01:26:48;6.30;62.60
20574;DHT22;10445;50.216;7.912;2024-01-30T01:29:16;6.30;60.80
20574;DHT22;10445;50.216;7.912;2024-01-30T01:31:47;6.20;60.20
20574;DHT22;10445;50.216;7.912;2024-01-30T01:34:15;6.20;60.70
20574;DHT22;10445;50.216;7.912;2024-01-30T01:36:44;6.20;61.90
20574;DHT22;10445;50.216;7.912;2024-01-30T01:39:12;6.10;61.30
20574;DHT22;10445;50.216;7.912;2024-01-30T01:41:40;6.20;62.60
20574;DHT22;10445;50.216;7.912;2024-01-30T01:44:09;6.20;61.90
20574;DHT22;10445;50.216;7.912;2024-01-30T01:46:37;6.10;61.30
20574;DHT22;10445;50.216;7.912;2024-01-30T01:49:08;6.10;62.30
20574;DHT22;10445;50.216;7.912;2024-01-30T01:51:37;6.00;62.50
20574;DHT22;10445;50.216;7.912;2024-01-30T01:54:09;6.00;63.40
20574;DHT22;10445;50.216;7.912;2024-01-30T01:56:37;6.00;65.10
20574;DHT22;10445;50.216;7.912;2024-01-30T01:59:08;6.00;64.90
20574;DHT22;10445;50.216;7.912;2024-01-30T02:01:36;6.00;64.40
20574;DHT22;10445;50.216;7.912;2024-01-30T02:04:07;6.00;66.00
20574;DHT22;10445;50.216;7.912;2024-01-30T02:06:36;6.00;66.30
20574;DHT22;10445;50.216;7.912;2024-01-30T02:09:05;6.00;65.90
20574;DHT22;10445;50.216;7.912;2024-01-30T02:11:34;6.00;65.50
20574;DHT22;10445;50.216;7.912;2024-01-30T02:14:04;5.90;65.60
20574;DHT22;10445;50.216;7.912;2024-01-30T02:16:33;5.90;66.10
20574;DHT22;10445;50.216;7.912;2024-01-30T02:19:01;5.90;68.40
20574;DHT22;10445;50.216;7.912;2024-01-30T02:21:31;5.90;68.00
20574;DHT22;10445;50.216;7.912;2024-01-30T02:24:00;5.90;68.40
20574;DHT22;10445;50.216;7.912;2024-01-30T02:26:29;5.80;66.90
20574;DHT22;10445;50.216;7.912;2024-01-30T02:28:58;5.80;68.70
20574;DHT22;10445;50.216;7.912;2024-01-30T02:31:26;5.80;69.90
20574;DHT22;10445;50.216;7.912;2024-01-30T02:33:54;5.80;71.50
20574;DHT22;10445;50.216;7.912;2024-01-30T02:36:23;5.80;70.80
20574;DHT22;10445;50.216;7.912;2024-01-30T02:38:53;5.80;70.70
20574;DHT22;10445;50.216;7.912;2024-01-30T02:41:21;5.80;71.80
20574;DHT22;10445;50.216;7.912;2024-01-30T02:43:50;5.80;70.70
20574;DHT22;10445;50.216;7.912;2024-01-30T02:46:18;5.80;70.80
20574;DHT22;10445;50.216;7.912;2024-01-30T02:48:47;5.80;70.60
20574;DHT22;10445;50.216;7.912;2024-01-30T02:51:15;5.70;69.60
20574;DHT22;10445;50.216;7.912;2024-01-30T02:53:44;5.70;72.10
20574;DHT22;10445;50.216;7.912;2024-01-30T02:56:14;5.70;71.60
20574;DHT22;10445;50.216;7.912;2024-01-30T02:58:43;5.60;71.00
20574;DHT22;10445;50.216;7.912;2024-01-30T03:01:11;5.60;72.70
20574;DHT22;10445;50.216;7.912;2024-01-30T03:03:39;5.60;73.60
20574;DHT22;10445;50.216;7.912;2024-01-30T03:06:09;5.60;76.20
20574;DHT22;10445;50.216;7.912;2024-01-30T03:08:38;5.60;75.60
20574;DHT22;10445;50.216;7.912;2024-01-30T03:11:07;5.60;77.10
20574;DHT22;10445;50.216;7.912;2024-01-30T03:13:37;5.60;77.00
20574;DHT22;10445;50.216;7.912;2024-01-30T03:16:06;5.60;77.00
20574;DHT22;10445;50.216;7.912;2024-01-30T03:18:34;5.60;75.20
20574;DHT22;10445;50.216;7.912;2024-01-30T03:21:03;5.50;76.50
20574;DHT22;10445;50.216;7.912;2024-01-30T03:23:32;5.40;76.40
20574;DHT22;10445;50.216;7.912;2024-01-30T03:26:00;5.30;78.80
20574;DHT22;10445;50.216;7.912;2024-01-30T03:28:29;5.30;78.40
20574;DHT22;10445;50.216;7.912;2024-01-30T03:30:58;5.10;79.20
20574;DHT22;10445;50.216;7.912;2024-01-30T03:33:27;5.10;80.60
20574;DHT22;10445;50.216;7.912;2024-01-30T03:35:55;5.10;81.20
20574;DHT22;10445;50.216;7.912;2024-01-30T03:38:24;5.00;83.10
20574;DHT22;10445;50.216;7.912;2024-01-30T03:40:52;5.00;82.90
20574;DHT22;10445;50.216;7.912;2024-01-30T03:43:20;4.90;84.00
20574;DHT22;10445;50.216;7.912;2024-01-30T03:45:49;4.90;85.30
20574;DHT22;10445;50.216;7.912;2024-01-30T03:48:19;4.80;85.70
20574;DHT22;10445;50.216;7.912;2024-01-30T03:50:48;4.70;86.00
20574;DHT22;10445;50.216;7.912;2024-01-30T03:53:17;4.70;86.20
20574;DHT22;10445;50.216;7.912;2024-01-30T03:55:46;4.60;86.20
20574;DHT22;10445;50.216;7.912;2024-01-30T03:58:14;4.60;87.60
20574;DHT22;10445;50.216;7.912;2024-01-30T04:00:43;4.60;88.40
20574;DHT22;10445;50.216;7.912;2024-01-30T04:03:12;4.60;89.10
20574;DHT22;10445;50.216;7.912;2024-01-30T04:05:41;4.50;89.20
20574;DHT22;10445;50.216;7.912;2024-01-30T04:08:10;4.50;90.00
20574;DHT22;10445;50.216;7.912;2024-01-30T04:10:38;4.50;90.20
20574;DHT22;10445;50.216;7.912;2024-01-30T04:13:07;4.40;90.40
20574;DHT22;10445;50.216;7.912;2024-01-30T04:15:38;4.50;91.70
20574;DHT22;10445;50.216;7.912;2024-01-30T04:18:07;4.50;92.50
20574;DHT22;10445;50.216;7.912;2024-01-30T04:20:36;4.40;92.20
20574;DHT22;10445;50.216;7.912;2024-01-30T04:23:06;4.40;92.40
20574;DHT22;10445;50.216;7.912;2024-01-30T04:25:34;4.60;97.70
20574;DHT22;10445;50.216;7.912;2024-01-30T04:28:03;4.70;97.70
20574;DHT22;10445;50.216;7.912;2024-01-30T04:30:31;4.70;98.10
20574;DHT22;10445;50.216;7.912;2024-01-30T04:33:00;4.80;99.90
20574;DHT22;10445;50.216;7.912;2024-01-30T04:35:28;5.00;99.90
20574;DHT22;10445;50.216;7.912;2024-01-30T04:37:57;5.10;99.90
20574;DHT22;10445;50.216;7.912;2024-01-30T04:40:27;5.00;99.60
20574;DHT22;10445;50.216;7.912;2024-01-30T04:42:55;5.10;99.90
20574;DHT22;10445;50.216;7.912;2024-01-30T04:45:25;5.20;99.90
20574;DHT22;10445;50.216;7.912;2024-01-30T04:47:53;5.30;99.70
20574;DHT22;10445;50.216;7.912;2024-01-30T04:50:23;5.40;98.80
20574;DHT22;10445;50.216;7.912;2024-01-30T04:52:53;5.50;97.40
20574;DHT22;10445;50.216;7.912;2024-01-30T04:55:22;5.40;95.40
20574;DHT22;10445;50.216;7.912;2024-01-30T04:57:51;5.40;96.40
20574;DHT22;10445;50.216;7.912;2024-01-30T05:00:20;5.40;95.10
20574;DHT22;10445;50.216;7.912;2024-01-30T05:02:48;5.20;94.30
20574;DHT22;10445;50.216;7.912;2024-01-30T05:05:17;5.10;94.10
20574;DHT22;10445;50.216;7.912;2024-01-30T05:07:45;5.00;94.10
20574;DHT22;10445;50.216;7.912;2024-01-30T05:10:14;4.90;94.30
20574;DHT22;10445;50.216;7.912;2024-01-30T05:12:42;4.80;94.20
20574;DHT22;10445;50.216;7.912;2024-01-30T05:15:12;4.70;94.30
20574;DHT22;10445;50.216;7.912;2024-01-30T05:17:41;4.60;94.60
20574;DHT22;10445;50.216;7.912;2024-01-30T05:20:10;4.50;96.00
20574;DHT22;10445;50.216;7.912;2024-01-30T05:22:39;4.50;96.80
20574;DHT22;10445;50.216;7.912;2024-01-30T05:25:12;4.40;98.00
20574;DHT22;10445;50.216;7.912;2024-01-30T05:27:43;4.40;98.00
20574;DHT22;10445;50.216;7.912;2024-01-30T05:30:14;4.40;98.70
20574;DHT22;10445;50.216;7.912;2024-01-30T05:32:42;4.40;99.70
20574;DHT22;10445;50.216;7.912;2024-01-30T05:35:11;4.50;99.90
20574;DHT22;10445;50.216;7.912;2024-01-30T05:37:40;4.50;99.90
20574;DHT22;10445;50.216;7.912;2024-01-30T05:40:09;4.40;99.90
20574;DHT22;10445;50.216;7.912;2024-01-30T05:42:38;4.40;99.90
20574;DHT22;10445;50.216;7.912;2024-01-30T05:45:07;4.60;99.90
20574;DHT22;10445;50.216;7.912;2024-01-30T05:47:37;4.70;99.90
20574;DHT22;10445;50.216;7.912;2024-01-30T05:50:06;4.70;99.90
20574;DHT22;10445;50.216;7.912;2024-01-30T05:52:35;4.90;99.90
20574;DHT22;10445;50.216;7.912;2024-01-30T05:55:04;4.90;99.90
20574;DHT22;10445;50.216;7.912;2024-01-30T05:57:33;5.00;99.90
20574;DHT22;10445;50.216;7.912;2024-01-30T06:00:01;4.90;99.90
20574;DHT22;10445;50.216;7.912;2024-01-30T06:02:32;5.00;99.90
20574;DHT22;10445;50.216;7.912;2024-01-30T06:05:02;5.00;99.90
20574;DHT22;10445;50.216;7.912;2024-01-30T06:07:31;4.90;99.50
20574;DHT22;10445;50.216;7.912;2024-01-30T06:10:04;4.80;99.80
20574;DHT22;10445;50.216;7.912;2024-01-30T06:12:32;4.80;99.90
20574;DHT22;10445;50.216;7.912;2024-01-30T06:15:01;4.70;99.90
20574;DHT22;10445;50.216;7.912;2024-01-30T06:17:29;4.60;99.90
20574;DHT22;10445;50.216;7.912;2024-01-30T06:19:57;4.60;99.90
20574;DHT22;10445;50.216;7.912;2024-01-30T06:22:28;4.50;99.90
20574;DHT22;10445;50.216;7.912;2024-01-30T06:24:56;4.40;99.90
20574;DHT22;10445;50.216;7.912;2024-01-30T06:27:24;4.40;99.90
20574;DHT22;10445;50.216;7.912;2024-01-30T06:29:53;4.40;99.90
20574;DHT22;10445;50.216;7.912;2024-01-30T06:32:21;4.30;99.90
20574;DHT22;10445;50.216;7.912;2024-01-30T06:34:50;4.30;99.90
20574;DHT22;10445;50.216;7.912;2024-01-30T06:37:18;4.20;99.90
20574;DHT22;10445;50.216;7.912;2024-01-30T06:39:48;4.20;99.90
20574;DHT22;10445;50.216;7.912;2024-01-30T06:42:18;4.20;99.90
20574;DHT22;10445;50.216;7.912;2024-01-30T06:44:47;4.10;99.90
20574;DHT22;10445;50.216;7.912;2024-01-30T06:47:15;4.00;99.90
20574;DHT22;10445;50.216;7.912;2024-01-30T06:49:44;3.90;99.90
20574;DHT22;10445;50.216;7.912;2024-01-30T06:52:12;3.90;99.90
20574;DHT22;10445;50.216;7.912;2024-01-30T06:54:41;4.00;99.90
20574;DHT22;10445;50.216;7.912;2024-01-30T06:57:11;4.00;99.90
20574;DHT22;10445;50.216;7.912;2024-01-30T06:59:41;3.90;99.90
20574;DHT22;10445;50.216;7.912;2024-01-30T07:02:11;3.90;99.90
20574;DHT22;10445;50.216;7.912;2024-01-30T07:04:39;3.90;99.90
20574;DHT22;10445;50.216;7.912;2024-01-30T07:07:13;3.90;99.90
20574;DHT22;10445;50.216;7.912;2024-01-30T07:09:42;3.90;99.90
20574;DHT22;10445;50.216;7.912;2024-01-30T07:12:13;3.90;99.90
20574;DHT22;10445;50.216;7.912;2024-01-30T07:14:41;3.80;99.90
20574;DHT22;10445;50.216;7.912;2024-01-30T07:17:09;3.80;99.90
20574;DHT22;10445;50.216;7.912;2024-01-30T07:19:38;3.80;99.90
20574;DHT22;10445;50.216;7.912;2024-01-30T07:22:07;3.70;99.90
20574;DHT22;10445;50.216;7.912;2024-01-30T07:24:36;3.70;99.90
20574;DHT22;10445;50.216;7.912;2024-01-30T07:27:04;3.80;99.90
20574;DHT22;10445;50.216;7.912;2024-01-30T07:29:34;3.90;99.90
20574;DHT22;10445;50.216;7.912;2024-01-30T07:32:03;4.10;99.90
20574;DHT22;10445;50.216;7.912;2024-01-30T07:34:31;4.30;99.90
20574;DHT22;10445;50.216;7.912;2024-01-30T07:37:11;4.40;99.90
20574;DHT22;10445;50.216;7.912;2024-01-30T07:39:42;4.40;99.90
20574;DHT22;10445;50.216;7.912;2024-01-30T07:42:11;4.50;99.90
20574;DHT22;10445;50.216;7.912;2024-01-30T07:44:41;4.50;99.90
20574;DHT22;10445;50.216;7.912;2024-01-30T07:47:09;4.50;99.90
20574;DHT22;10445;50.216;7.912;2024-01-30T07:49:37;4.50;99.90
20574;DHT22;10445;50.216;7.912;2024-01-30T07:52:06;4.50;99.90
20574;DHT22;10445;50.216;7.912;2024-01-30T07:54:34;4.60;99.90
20574;DHT22;10445;50.216;7.912;2024-01-30T07:57:06;4.70;99.90
20574;DHT22;10445;50.216;7.912;2024-01-30T07:59:35;4.80;99.90
20574;DHT22;10445;50.216;7.912;2024-01-30T08:02:05;4.90;99.90
20574;DHT22;10445;50.216;7.912;2024-01-30T08:04:34;5.00;99.90
20574;DHT22;10445;50.216;7.912;2024-01-30T08:07:03;5.10;99.90
20574;DHT22;10445;50.216;7.912;2024-01-30T08:09:32;5.20;99.40
20574;DHT22;10445;50.216;7.912;2024-01-30T08:12:00;5.30;97.60
20574;DHT22;10445;50.216;7.912;2024-01-30T08:14:29;5.40;93.60
20574;DHT22;10445;50.216;7.912;2024-01-30T08:16:58;5.50;91.60
20574;DHT22;10445;50.216;7.912;2024-01-30T08:19:28;5.50;90.10
20574;DHT22;10445;50.216;7.912;2024-01-30T08:21:59;5.60;89.60
20574;DHT22;10445;50.216;7.912;2024-01-30T08:24:27;5.60;89.60
20574;DHT22;10445;50.216;7.912;2024-01-30T08:26:55;5.60;88.20
20574;DHT22;10445;50.216;7.912;2024-01-30T08:29:25;5.70;88.20
20574;DHT22;10445;50.216;7.912;2024-01-30T08:31:53;5.80;87.10
20574;DHT22;10445;50.216;7.912;2024-01-30T08:34:22;5.90;85.40
20574;DHT22;10445;50.216;7.912;2024-01-30T08:36:52;6.00;81.90
20574;DHT22;10445;50.216;7.912;2024-01-30T08:39:21;6.10;80.80
20574;DHT22;10445;50.216;7.912;2024-01-30T08:41:50;6.20;80.00
20574;DHT22;10445;50.216;7.912;2024-01-30T08:44:19;6.20;80.30
20574;DHT22;10445;50.216;7.912;2024-01-30T08:46:47;6.30;78.20
20574;DHT22;10445;50.216;7.912;2024-01-30T08:49:17;6.40;75.20
20574;DHT22;10445;50.216;7.912;2024-01-30T08:51:46;6.50;75.50
20574;DHT22;10445;50.216;7.912;2024-01-30T08:54:17;6.50;74.30
20574;DHT22;10445;50.216;7.912;2024-01-30T08:56:46;6.60;72.70
20574;DHT22;10445;50.216;7.912;2024-01-30T08:59:14;6.70;71.60
20574;DHT22;10445;50.216;7.912;2024-01-30T09:01:43;6.80;70.40
20574;DHT22;10445;50.216;7.912;2024-01-30T09:04:29;6.90;68.80
20574;DHT22;10445;50.216;7.912;2024-01-30T09:06:57;6.90;68.10
20574;DHT22;10445;50.216;7.912;2024-01-30T09:09:28;7.00;68.90
20574;DHT22;10445;50.216;7.912;2024-01-30T09:11:57;7.00;70.40
20574;DHT22;10445;50.216;7.912;2024-01-30T09:14:29;6.90;70.50
20574;DHT22;10445;50.216;7.912;2024-01-30T09:16:58;7.00;70.50
20574;DHT22;10445;50.216;7.912;2024-01-30T09:19:26;7.00;70.00
20574;DHT22;10445;50.216;7.912;2024-01-30T09:21:55;7.10;69.40
20574;DHT22;10445;50.216;7.912;2024-01-30T09:24:24;7.20;68.10
20574;DHT22;10445;50.216;7.912;2024-01-30T09:26:54;7.20;68.30
20574;DHT22;10445;50.216;7.912;2024-01-30T09:29:22;7.20;68.40
20574;DHT22;10445;50.216;7.912;2024-01-30T09:31:50;7.30;66.00
20574;DHT22;10445;50.216;7.912;2024-01-30T09:34:19;7.30;65.80
20574;DHT22;10445;50.216;7.912;2024-01-30T09:36:48;7.40;65.80
20574;DHT22;10445;50.216;7.912;2024-01-30T09:39:17;7.50;65.60
20574;DHT22;10445;50.216;7.912;2024-01-30T09:41:49;7.60;62.20
20574;DHT22;10445;50.216;7.912;2024-01-30T09:44:24;7.70;63.30
20574;DHT22;10445;50.216;7.912;2024-01-30T09:46:53;7.60;62.00
20574;DHT22;10445;50.216;7.912;2024-01-30T09:49:22;7.70;65.10
20574;DHT22;10445;50.216;7.912;2024-01-30T09:51:52;7.70;65.80
20574;DHT22;10445;50.216;7.912;2024-01-30T09:54:21;7.70;65.50
20574;DHT22;10445;50.216;7.912;2024-01-30T09:56:50;7.70;64.20
20574;DHT22;10445;50.216;7.912;2024-01-30T09:59:20;7.80;62.70
20574;DHT22;10445;50.216;7.912;2024-01-30T10:01:50;7.80;61.30
20574;DHT22;10445;50.216;7.912;2024-01-30T10:04:21;7.80;59.70
20574;DHT22;10445;50.216;7.912;2024-01-30T10:06:52;7.90;60.80
20574;DHT22;10445;50.216;7.912;2024-01-30T10:09:22;7.90;56.70
20574;DHT22;10445;50.216;7.912;2024-01-30T10:11:51;7.90;58.40
20574;DHT22;10445;50.216;7.912;2024-01-30T10:14:22;7.90;60.10
20574;DHT22;10445;50.216;7.912;2024-01-30T10:16:53;8.00;60.90
20574;DHT22;10445;50.216;7.912;2024-01-30T10:19:23;8.10;61.30
20574;DHT22;10445;50.216;7.912;2024-01-30T10:21:52;8.20;60.10
20574;DHT22;10445;50.216;7.912;2024-01-30T10:24:24;8.40;61.50
20574;DHT22;10445;50.216;7.912;2024-01-30T10:26:54;8.60;61.20
20574;DHT22;10445;50.216;7.912;2024-01-30T10:29:24;8.80;56.50
20574;DHT22;10445;50.216;7.912;2024-01-30T10:32:03;9.10;54.90
20574;DHT22;10445;50.216;7.912;2024-01-30T10:34:33;9.20;51.20
20574;DHT22;10445;50.216;7.912;2024-01-30T10:37:07;9.40;49.70
20574;DHT22;10445;50.216;7.912;2024-01-30T10:39:42;9.50;49.00
20574;DHT22;10445;50.216;7.912;2024-01-30T10:42:14;9.80;43.60
20574;DHT22;10445;50.216;7.912;2024-01-30T10:44:55;10.00;39.10
20574;DHT22;10445;50.216;7.912;2024-01-30T10:47:27;10.20;38.30
20574;DHT22;10445;50.216;7.912;2024-01-30T10:49:58;10.60;29.80
20574;DHT22;10445;50.216;7.912;2024-01-30T10:52:29;10.60;29.30
20574;DHT22;10445;50.216;7.912;2024-01-30T10:54:58;10.50;26.30
20574;DHT22;10445;50.216;7.912;2024-01-30T10:57:27;10.50;28.60
20574;DHT22;10445;50.216;7.912;2024-01-30T10:59:59;10.40;32.80
20574;DHT22;10445;50.216;7.912;2024-01-30T11:02:29;10.40;32.70
20574;DHT22;10445;50.216;7.912;2024-01-30T11:04:59;10.40;37.60
20574;DHT22;10445;50.216;7.912;2024-01-30T11:07:29;10.60;32.50
20574;DHT22;10445;50.216;7.912;2024-01-30T11:10:02;10.80;28.90
20574;DHT22;10445;50.216;7.912;2024-01-30T11:12:33;11.10;28.80
20574;DHT22;10445;50.216;7.912;2024-01-30T11:15:14;11.30;26.60
20574;DHT22;10445;50.216;7.912;2024-01-30T11:17:49;11.50;23.00
20574;DHT22;10445;50.216;7.912;2024-01-30T11:20:21;11.80;15.10
20574;DHT22;10445;50.216;7.912;2024-01-30T11:22:52;11.80;19.70
20574;DHT22;10445;50.216;7.912;2024-01-30T11:25:22;11.80;16.60
20574;DHT22;10445;50.216;7.912;2024-01-30T11:27:52;11.70;17.00
20574;DHT22;10445;50.216;7.912;2024-01-30T11:30:24;11.50;18.30
20574;DHT22;10445;50.216;7.912;2024-01-30T11:33:00;11.30;19.30
20574;DHT22;10445;50.216;7.912;2024-01-30T11:35:33;11.30;19.40
20574;DHT22;10445;50.216;7.912;2024-01-30T11:38:04;11.40;20.40
20574;DHT22;10445;50.216;7.912;2024-01-30T11:40:34;11.40;23.00
20574;DHT22;10445;50.216;7.912;2024-01-30T11:43:05;11.40;20.00
20574;DHT22;10445;50.216;7.912;2024-01-30T11:45:36;11.30;24.80
20574;DHT22;10445;50.216;7.912;2024-01-30T11:48:07;11.40;23.00
20574;DHT22;10445;50.216;7.912;2024-01-30T11:50:39;11.40;24.90
20574;DHT22;10445;50.216;7.912;2024-01-30T11:53:08;11.40;22.80
20574;DHT22;10445;50.216;7.912;2024-01-30T11:55:37;11.30;25.70
20574;DHT22;10445;50.216;7.912;2024-01-30T11:58:06;11.10;27.40
20574;DHT22;10445;50.216;7.912;2024-01-30T12:00:37;10.90;33.10
20574;DHT22;10445;50.216;7.912;2024-01-30T12:03:05;10.80;31.40
20574;DHT22;10445;50.216;7.912;2024-01-30T12:05:34;10.80;32.70
20574;DHT22;10445;50.216;7.912;2024-01-30T12:08:04;10.80;33.60
20574;DHT22;10445;50.216;7.912;2024-01-30T12:10:36;10.70;38.30
20574;DHT22;10445;50.216;7.912;2024-01-30T12:13:04;10.80;36.90
20574;DHT22;10445;50.216;7.912;2024-01-30T12:15:35;10.90;36.30
20574;DHT22;10445;50.216;7.912;2024-01-30T12:18:06;10.90;35.60
20574;DHT22;10445;50.216;7.912;2024-01-30T12:20:35;10.90;38.50
20574;DHT22;10445;50.216;7.912;2024-01-30T12:23:04;11.20;34.60
20574;DHT22;10445;50.216;7.912;2024-01-30T12:25:32;11.50;26.90
20574;DHT22;10445;50.216;7.912;2024-01-30T12:28:01;11.50;24.70
20574;DHT22;10445;50.216;7.912;2024-01-30T12:30:30;11.50;25.20
20574;DHT22;10445;50.216;7.912;2024-01-30T12:33:00;11.30;26.10
20574;DHT22;10445;50.216;7.912;2024-01-30T12:35:33;11.10;29.60
20574;DHT22;10445;50.216;7.912;2024-01-30T12:38:07;10.90;35.10
20574;DHT22;10445;50.216;7.912;2024-01-30T12:40:36;10.70;38.00
20574;DHT22;10445;50.216;7.912;2024-01-30T12:43:08;10.60;42.60
20574;DHT22;10445;50.216;7.912;2024-01-30T12:45:37;10.60;40.60
20574;DHT22;10445;50.216;7.912;2024-01-30T12:48:06;10.60;42.60
20574;DHT22;10445;50.216;7.912;2024-01-30T12:50:36;10.50;43.40
20574;DHT22;10445;50.216;7.912;2024-01-30T12:53:04;10.60;40.90
20574;DHT22;10445;50.216;7.912;2024-01-30T12:55:33;10.50;40.90
20574;DHT22;10445;50.216;7.912;2024-01-30T12:58:02;10.50;42.10
20574;DHT22;10445;50.216;7.912;2024-01-30T13:00:33;10.50;45.80
20574;DHT22;10445;50.216;7.912;2024-01-30T13:03:03;10.50;44.00
20574;DHT22;10445;50.216;7.912;2024-01-30T13:05:32;10.50;47.10
20574;DHT22;10445;50.216;7.912;2024-01-30T13:08:02;10.50;44.80
20574;DHT22;10445;50.216;7.912;2024-01-30T13:10:30;10.50;45.70
20574;DHT22;10445;50.216;7.912;2024-01-30T13:12:59;10.50;44.30
20574;DHT22;10445;50.216;7.912;2024-01-30T13:15:28;10.50;46.80
20574;DHT22;10445;50.216;7.912;2024-01-30T13:17:56;10.40;47.50
20574;DHT22;10445;50.216;7.912;2024-01-30T13:20:24;10.40;49.50
20574;DHT22;10445;50.216;7.912;2024-01-30T13:22:54;10.40;50.40
20574;DHT22;10445;50.216;7.912;2024-01-30T13:25:23;10.40;49.40
20574;DHT22;10445;50.216;7.912;2024-01-30T13:27:53;10.30;52.00
20574;DHT22;10445;50.216;7.912;2024-01-30T13:30:21;10.30;49.00
20574;DHT22;10445;50.216;7.912;2024-01-30T13:32:50;10.30;52.50
20574;DHT22;10445;50.216;7.912;2024-01-30T13:35:18;10.30;52.90
20574;DHT22;10445;50.216;7.912;2024-01-30T13:37:47;10.30;51.90
20574;DHT22;10445;50.216;7.912;2024-01-30T13:40:16;10.40;51.70
20574;DHT22;10445;50.216;7.912;2024-01-30T13:42:46;10.40;53.40
20574;DHT22;10445;50.216;7.912;2024-01-30T13:45:15;10.30;52.90
20574;DHT22;10445;50.216;7.912;2024-01-30T13:47:43;10.30;53.70
20574;DHT22;10445;50.216;7.912;2024-01-30T13:50:11;10.30;53.70
20574;DHT22;10445;50.216;7.912;2024-01-30T13:52:42;10.20;53.90
20574;DHT22;10445;50.216;7.912;2024-01-30T13:55:12;10.20;54.60
20574;DHT22;10445;50.216;7.912;2024-01-30T13:57:41;10.10;57.20
20574;DHT22;10445;50.216;7.912;2024-01-30T14:00:13;10.10;57.80
20574;DHT22;10445;50.216;7.912;2024-01-30T14:02:43;10.00;58.50
20574;DHT22;10445;50.216;7.912;2024-01-30T14:05:12;9.90;60.50
20574;DHT22;10445;50.216;7.912;2024-01-30T14:07:43;9.90;66.20
20574;DHT22;10445;50.216;7.912;2024-01-30T14:10:12;9.80;70.20
20574;DHT22;10445;50.216;7.912;2024-01-30T14:12:42;9.80;72.20
20574;DHT22;10445;50.216;7.912;2024-01-30T14:15:13;9.70;74.80
20574;DHT22;10445;50.216;7.912;2024-01-30T14:17:54;9.50;76.10
20574;DHT22;10445;50.216;7.912;2024-01-30T14:20:26;9.50;78.90
20574;DHT22;10445;50.216;7.912;2024-01-30T14:22:55;9.40;80.60
20574;DHT22;10445;50.216;7.912;2024-01-30T14:25:25;9.30;82.00
20574;DHT22;10445;50.216;7.912;2024-01-30T14:27:54;9.30;82.60
20574;DHT22;10445;50.216;7.912;2024-01-30T14:30:24;9.30;83.60
20574;DHT22;10445;50.216;7.912;2024-01-30T14:32:52;9.30;83.90
20574;DHT22;10445;50.216;7.912;2024-01-30T14:35:21;9.30;82.20
20574;DHT22;10445;50.216;7.912;2024-01-30T14:37:49;9.30;83.50
20574;DHT22;10445;50.216;7.912;2024-01-30T14:40:18;9.30;84.20
20574;DHT22;10445;50.216;7.912;2024-01-30T14:42:50;9.30;82.90
20574;DHT22;10445;50.216;7.912;2024-01-30T14:45:18;9.30;82.60
20574;DHT22;10445;50.216;7.912;2024-01-30T14:47:50;9.30;82.40
20574;DHT22;10445;50.216;7.912;2024-01-30T14:50:20;9.30;81.40
20574;DHT22;10445;50.216;7.912;2024-01-30T14:52:48;9.30;81.60
20574;DHT22;10445;50.216;7.912;2024-01-30T14:55:17;9.40;80.80
20574;DHT22;10445;50.216;7.912;2024-01-30T14:57:45;9.30;80.90
20574;DHT22;10445;50.216;7.912;2024-01-30T15:00:17;9.30;80.80
20574;DHT22;10445;50.216;7.912;2024-01-30T15:02:45;9.40;81.80
20574;DHT22;10445;50.216;7.912;2024-01-30T15:05:16;9.30;81.60
20574;DHT22;10445;50.216;7.912;2024-01-30T15:07:47;9.30;81.80
20574;DHT22;10445;50.216;7.912;2024-01-30T15:10:16;9.30;82.50
20574;DHT22;10445;50.216;7.912;2024-01-30T15:12:44;9.30;80.80
20574;DHT22;10445;50.216;7.912;2024-01-30T15:15:13;9.30;80.20
20574;DHT22;10445;50.216;7.912;2024-01-30T15:17:41;9.30;80.90
20574;DHT22;10445;50.216;7.912;2024-01-30T15:20:10;9.30;80.30
20574;DHT22;10445;50.216;7.912;2024-01-30T15:22:40;9.20;79.80
20574;DHT22;10445;50.216;7.912;2024-01-30T15:25:09;9.20;79.50
20574;DHT22;10445;50.216;7.912;2024-01-30T15:27:38;9.20;80.60
20574;DHT22;10445;50.216;7.912;2024-01-30T15:30:07;9.10;79.50
20574;DHT22;10445;50.216;7.912;2024-01-30T15:32:36;9.10;80.30
20574;DHT22;10445;50.216;7.912;2024-01-30T15:35:05;9.10;81.00
20574;DHT22;10445;50.216;7.912;2024-01-30T15:37:35;9.10;81.10
20574;DHT22;10445;50.216;7.912;2024-01-30T15:40:06;9.10;80.90
20574;DHT22;10445;50.216;7.912;2024-01-30T15:42:36;9.00;80.70
20574;DHT22;10445;50.216;7.912;2024-01-30T15:45:05;9.00;81.40
20574;DHT22;10445;50.216;7.912;2024-01-30T15:47:34;9.00;82.20
20574;DHT22;10445;50.216;7.912;2024-01-30T15:50:04;8.90;82.10
20574;DHT22;10445;50.216;7.912;2024-01-30T15:52:33;8.80;83.10
20574;DHT22;10445;50.216;7.912;2024-01-30T15:55:01;8.80;83.60
20574;DHT22;10445;50.216;7.912;2024-01-30T15:57:31;8.80;84.10